Terminal Aerodrome Forecast
Issued by NWS Louisville, KY

Home | Current Version | Previous Version | Text Only | Print | Product List | Glossary On
Versions: 1 2 3 4 5 6 7 8 9 10 11 12 13 14 15 16 17 18 19 20 21
469
FTUS43 KLMK 270346 AAA
TAFLEX
TAF AMD
KLEX 270346Z 2704/2724 27010G28KT 6SM -SHRA SCT060 BKN080
     FM270600 VRB06KT P6SM VCSH SCT040 BKN060
     FM271700 20008KT 6SM -SHRA VCTS SCT025CB BKN100=

USA.gov is the U.S. government's official web portal to all federal, state and local government web resources and services.